Time;durP1;ratioP1;P1;durP2;ratioP2;P2;SDS_P1;SDS_P2;PMS_P1;PMS_P2;Temp;Humidity;BMP_temperature;BMP_pressure;BME280_temperature;BME280_humidity;BME280_pressure;Samples;Min_cycle;Max_cycle;Signal;HPM_P1;HPM_P2
2023/12/28 00:02:10;;;;;;;0.90;0.90;;;0.80;99.90;;;;;;5135320;28;20177;-81
2023/12/28 00:04:36;;;;;;;0.90;0.90;;;0.90;99.90;;;;;;5121306;28;20260;-82
2023/12/28 00:07:03;;;;;;;0.90;0.90;;;1.00;99.90;;;;;;5119927;28;20209;-84
2023/12/28 00:09:29;;;;;;;0.90;0.90;;;0.90;96.10;;;;;;5120948;28;20215;-82
2023/12/28 00:11:55;;;;;;;0.90;0.90;;;1.10;88.10;;;;;;5139920;27;20168;-81
2023/12/28 00:14:21;;;;;;;0.90;0.90;;;1.20;24.20;;;;;;5139945;27;20679;-82
2023/12/28 00:16:46;;;;;;;0.93;0.93;;;1.20;22.40;;;;;;5140288;27;20200;-85
2023/12/28 00:19:12;;;;;;;1.00;1.00;;;1.20;15.30;;;;;;5141001;27;20179;-85
2023/12/28 00:21:37;;;;;;;0.90;0.90;;;1.10;4.50;;;;;;5139872;27;20201;-84
2023/12/28 00:24:03;;;;;;;0.80;0.80;;;1.00;70.10;;;;;;5133936;27;20203;-83
2023/12/28 00:26:29;;;;;;;0.90;0.90;;;0.90;99.90;;;;;;5119260;28;20197;-83
2023/12/28 00:28:54;;;;;;;0.93;0.93;;;0.90;99.90;;;;;;5119360;28;20259;-81
2023/12/28 00:31:20;;;;;;;0.90;0.90;;;0.90;99.90;;;;;;5118217;28;20172;-83
2023/12/28 00:33:45;;;;;;;0.90;0.90;;;1.00;99.90;;;;;;5117239;28;20233;-83
2023/12/28 00:36:11;;;;;;;0.90;0.90;;;1.00;99.90;;;;;;5117133;28;20532;-83
2023/12/28 00:38:37;;;;;;;0.80;0.80;;;1.10;99.60;;;;;;5118782;28;20203;-83
2023/12/28 00:41:02;;;;;;;0.80;0.80;;;1.00;97.20;;;;;;5119612;28;20247;-80
2023/12/28 00:43:28;;;;;;;0.87;0.87;;;0.90;99.90;;;;;;5120235;28;20169;-82
2023/12/28 00:45:53;;;;;;;0.90;0.90;;;1.00;99.90;;;;;;5118074;28;20222;-83
2023/12/28 00:48:19;;;;;;;0.80;0.80;;;1.00;99.90;;;;;;5119123;28;20173;-84
2023/12/28 00:50:44;;;;;;;0.90;0.90;;;1.20;65.00;;;;;;5118723;28;20256;-81
2023/12/28 00:53:10;;;;;;;1.00;1.00;;;1.20;27.30;;;;;;5118244;28;20196;-82
2023/12/28 00:55:35;;;;;;;1.00;1.00;;;1.10;27.80;;;;;;5121116;28;20173;-83
2023/12/28 00:58:01;;;;;;;0.90;0.90;;;1.10;42.00;;;;;;5118301;28;20170;-82
2023/12/28 01:00:26;;;;;;;0.97;0.97;;;1.10;27.90;;;;;;5128861;28;20184;-80
2023/12/28 01:02:52;;;;;;;1.00;1.00;;;0.90;27.70;;;;;;5137678;28;20173;-80
2023/12/28 01:05:18;;;;;;;1.03;1.03;;;1.00;54.20;;;;;;5137178;28;20188;-80
2023/12/28 01:07:43;;;;;;;0.80;0.80;;;1.00;56.60;;;;;;5136714;28;20197;-81
2023/12/28 01:10:09;;;;;;;0.90;0.90;;;1.00;29.50;;;;;;5130155;28;20228;-83
2023/12/28 01:12:34;;;;;;;1.10;1.10;;;0.90;21.60;;;;;;5120390;28;20173;-84
2023/12/28 01:15:00;;;;;;;1.00;1.00;;;0.90;14.80;;;;;;5121377;28;20177;-83
2023/12/28 01:17:25;;;;;;;0.90;0.90;;;0.90;23.60;;;;;;5118922;28;20291;-83
2023/12/28 01:19:51;;;;;;;0.83;0.83;;;0.90;18.50;;;;;;5119371;28;20169;-83
2023/12/28 01:22:17;;;;;;;1.00;1.00;;;0.70;51.80;;;;;;5120367;28;20169;-84
2023/12/28 01:24:45;;;;;;;0.90;0.90;;;0.60;92.60;;;;;;5120328;28;20169;-84
2023/12/28 01:27:11;;;;;;;0.80;0.80;;;0.50;99.90;;;;;;5119955;28;20201;-83
2023/12/28 01:29:36;;;;;;;0.80;0.80;;;0.50;99.90;;;;;;5119916;28;20236;-85
2023/12/28 01:32:03;;;;;;;1.00;1.00;;;0.60;99.90;;;;;;5119484;28;20626;-83
2023/12/28 01:34:29;;;;;;;1.00;1.00;;;0.50;99.90;;;;;;5119549;28;20170;-82
2023/12/28 01:36:54;;;;;;;0.83;0.83;;;0.60;99.90;;;;;;5118391;28;20196;-84
2023/12/28 01:39:20;;;;;;;0.90;0.90;;;0.60;99.90;;;;;;5118887;28;20173;-84
2023/12/28 01:41:46;;;;;;;0.90;0.90;;;0.60;99.90;;;;;;5119872;28;20169;-84
2023/12/28 01:44:11;;;;;;;0.90;0.90;;;0.50;99.90;;;;;;5119564;28;20165;-84
2023/12/28 01:46:37;;;;;;;0.90;0.90;;;0.60;99.90;;;;;;5121427;28;20264;-83
2023/12/28 01:49:05;;;;;;;0.87;0.87;;;0.70;99.90;;;;;;5122673;28;20205;-83
2023/12/28 01:51:31;;;;;;;0.90;0.90;;;0.80;99.90;;;;;;5122821;28;20173;-84
2023/12/28 01:53:57;;;;;;;0.90;0.90;;;0.80;96.00;;;;;;5120929;28;20170;-84
2023/12/28 01:56:24;;;;;;;0.90;0.90;;;0.70;94.90;;;;;;5122267;28;20185;-83
2023/12/28 01:58:52;;;;;;;0.90;0.90;;;0.70;97.80;;;;;;5122322;28;20165;-83
2023/12/28 02:01:18;;;;;;;1.00;1.00;;;0.50;99.90;;;;;;5122945;28;20245;-84
2023/12/28 02:03:44;;;;;;;0.90;0.90;;;0.40;99.90;;;;;;5122259;28;20196;-83
2023/12/28 02:06:10;;;;;;;0.90;0.90;;;0.40;99.90;;;;;;5121910;27;20200;-84
2023/12/28 02:08:36;;;;;;;1.00;1.00;;;0.40;99.90;;;;;;5121730;28;20177;-84
2023/12/28 02:11:02;;;;;;;0.90;0.90;;;0.40;99.90;;;;;;5122423;28;20239;-82
2023/12/28 02:13:27;;;;;;;0.90;0.90;;;0.40;99.90;;;;;;5120833;28;20206;-82
2023/12/28 02:16:12;;;;;;;0.90;0.90;;;0.40;99.90;;;;;;5121697;28;20724;-84
2023/12/28 02:18:43;;;;;;;0.90;0.90;;;0.40;99.90;;;;;;5122609;27;20184;-85
2023/12/28 02:21:08;;;;;;;0.80;0.80;;;0.50;99.90;;;;;;5121494;28;20169;-84
2023/12/28 02:23:34;;;;;;;1.00;1.00;;;0.70;99.90;;;;;;5122922;27;20252;-84
2023/12/28 02:26:01;;;;;;;1.00;1.00;;;0.80;90.40;;;;;;5122355;28;20669;-84
2023/12/28 02:28:26;;;;;;;1.00;1.00;;;0.50;79.20;;;;;;5122152;28;20184;-84
2023/12/28 02:30:52;;;;;;;0.80;0.80;;;0.40;99.70;;;;;;5122802;28;20177;-85
2023/12/28 02:33:20;;;;;;;0.83;0.83;;;0.40;99.90;;;;;;5122714;28;20534;-83
2023/12/28 02:35:52;;;;;;;0.83;0.83;;;0.70;99.90;;;;;;5122047;28;20197;-82
2023/12/28 02:38:19;;;;;;;0.87;0.87;;;0.70;76.30;;;;;;5123747;28;20192;-83
2023/12/28 02:40:46;;;;;;;0.90;0.90;;;0.50;80.60;;;;;;5135729;28;20157;-80
2023/12/28 02:43:12;;;;;;;0.90;0.90;;;0.40;99.90;;;;;;5138426;28;20173;-81
2023/12/28 02:45:38;;;;;;;0.83;0.83;;;0.40;99.90;;;;;;5138044;28;20196;-81
2023/12/28 02:48:04;;;;;;;0.90;0.90;;;0.40;99.90;;;;;;5138768;28;20200;-81
2023/12/28 02:50:31;;;;;;;0.97;0.97;;;0.40;99.90;;;;;;5138643;28;20212;-79
2023/12/28 02:52:57;;;;;;;0.90;0.90;;;0.40;99.90;;;;;;5123742;28;20650;-85
2023/12/28 02:55:23;;;;;;;0.90;0.90;;;0.40;99.90;;;;;;5116823;28;20216;-82
2023/12/28 02:57:50;;;;;;;0.87;0.87;;;0.50;99.90;;;;;;5118551;28;20181;-83
2023/12/28 03:00:16;;;;;;;0.90;0.90;;;0.50;99.90;;;;;;5114898;28;20654;-82
2023/12/28 03:02:42;;;;;;;0.90;0.90;;;0.40;99.90;;;;;;5115568;28;20170;-80
2023/12/28 03:05:08;;;;;;;0.90;0.90;;;0.50;99.90;;;;;;5115588;28;20268;-82
2023/12/28 03:07:34;;;;;;;0.90;0.90;;;0.70;99.90;;;;;;5125050;28;20205;-82
2023/12/28 03:10:00;;;;;;;0.90;0.90;;;0.90;99.90;;;;;;5121570;28;20612;-82
2023/12/28 03:12:25;;;;;;;1.00;1.00;;;1.10;28.40;;;;;;5120218;28;20173;-83
2023/12/28 03:14:51;;;;;;;1.00;1.00;;;1.10;1.00;;;;;;5119116;28;20173;-83
2023/12/28 03:17:17;;;;;;;0.93;0.93;;;1.10;1.00;;;;;;5123205;28;20185;-79
2023/12/28 03:19:42;;;;;;;0.90;0.90;;;1.30;1.00;;;;;;5136765;28;20165;-84
2023/12/28 03:22:08;;;;;;;0.90;0.90;;;1.40;1.00;;;;;;5121470;28;20177;-84
2023/12/28 03:24:33;;;;;;;1.07;1.07;;;1.50;1.00;;;;;;5121716;28;20176;-83
2023/12/28 03:26:59;;;;;;;0.90;0.90;;;1.60;1.00;;;;;;5120416;28;20204;-83
2023/12/28 03:29:25;;;;;;;0.97;0.97;;;1.60;1.00;;;;;;5120237;28;20258;-83
2023/12/28 03:31:50;;;;;;;0.83;0.83;;;1.70;1.00;;;;;;5118990;28;20165;-82
2023/12/28 03:34:16;;;;;;;0.90;0.90;;;1.90;1.00;;;;;;5118766;28;20647;-83
2023/12/28 03:36:41;;;;;;;0.90;0.90;;;1.80;1.00;;;;;;5118951;28;20802;-84
2023/12/28 03:39:08;;;;;;;0.90;0.90;;;1.70;1.00;;;;;;5120530;28;20241;-82
2023/12/28 03:41:33;;;;;;;1.00;1.00;;;1.50;1.00;;;;;;5118497;28;20184;-82
2023/12/28 03:43:59;;;;;;;1.00;1.00;;;1.50;1.00;;;;;;5115725;28;20181;-83
2023/12/28 03:46:26;;;;;;;0.90;0.90;;;1.50;1.00;;;;;;5116460;28;20239;-82
2023/12/28 03:48:52;;;;;;;0.90;0.90;;;1.30;1.00;;;;;;5115189;28;20224;-83
2023/12/28 03:51:18;;;;;;;0.90;0.90;;;1.30;1.00;;;;;;5117069;28;20173;-83
2023/12/28 03:53:43;;;;;;;0.90;0.90;;;1.20;1.00;;;;;;5116782;28;20174;-82
2023/12/28 03:56:24;;;;;;;0.80;0.80;;;1.30;1.00;;;;;;5115856;28;20292;-83
2023/12/28 03:58:51;;;;;;;0.90;0.90;;;1.50;1.00;;;;;;5116010;28;20219;-83
2023/12/28 04:01:22;;;;;;;1.00;1.00;;;1.50;1.00;;;;;;5116747;28;20173;-82
2023/12/28 04:03:48;;;;;;;1.00;1.00;;;1.20;1.00;;;;;;5116193;28;20188;-82
2023/12/28 04:06:14;;;;;;;0.90;0.90;;;1.10;1.00;;;;;;5114961;28;20250;-83
2023/12/28 04:08:43;;;;;;;0.90;0.90;;;1.00;12.20;;;;;;5115717;28;20177;-83
2023/12/28 04:11:09;;;;;;;0.90;0.90;;;1.10;12.00;;;;;;5116508;28;20191;-83
2023/12/28 04:13:35;;;;;;;1.00;1.00;;;1.10;12.30;;;;;;5114776;28;20173;-83
2023/12/28 04:16:02;;;;;;;0.90;0.90;;;1.10;15.70;;;;;;5114743;28;20189;-81
2023/12/28 04:18:28;;;;;;;0.90;0.90;;;1.20;12.80;;;;;;5116127;28;20177;-82
2023/12/28 04:20:54;;;;;;;1.00;1.00;;;1.70;1.00;;;;;;5115420;28;20175;-83
2023/12/28 04:23:20;;;;;;;1.00;1.00;;;2.00;1.00;;;;;;5115987;28;20165;-83
2023/12/28 04:25:45;;;;;;;0.90;0.90;;;2.20;1.00;;;;;;5115188;28;20216;-83
2023/12/28 04:28:11;;;;;;;0.90;0.90;;;2.40;1.00;;;;;;5116203;28;20169;-82
2023/12/28 04:30:36;;;;;;;0.90;0.90;;;2.20;1.00;;;;;;5116311;28;20205;-82
2023/12/28 04:33:02;;;;;;;0.80;0.80;;;2.30;1.00;;;;;;5115811;28;20170;-83
2023/12/28 04:35:28;;;;;;;0.90;0.90;;;2.60;99.90;;;;;;5115274;27;20665;-83
2023/12/28 04:37:54;;;;;;;0.80;0.80;;;2.60;99.90;;;;;;5115907;28;20169;-83
2023/12/28 04:40:20;;;;;;;0.80;0.80;;;2.90;1.00;;;;;;5115253;28;20192;-82
2023/12/28 04:42:46;;;;;;;0.90;0.90;;;3.00;1.00;;;;;;5116066;28;20201;-82
2023/12/28 04:45:11;;;;;;;0.90;0.90;;;2.90;1.00;;;;;;5115258;28;20173;-82
2023/12/28 04:47:37;;;;;;;0.80;0.80;;;3.20;99.90;;;;;;5114908;28;20238;-82
2023/12/28 04:50:04;;;;;;;0.90;0.90;;;3.40;99.90;;;;;;5115648;28;20246;-80
2023/12/28 04:52:30;;;;;;;0.80;0.80;;;3.50;1.00;;;;;;5114625;28;20200;-83
2023/12/28 04:54:56;;;;;;;0.90;0.90;;;3.50;99.90;;;;;;5116207;28;20180;-83
2023/12/28 04:57:24;;;;;;;0.90;0.90;;;3.60;1.00;;;;;;5120068;28;20173;-80
2023/12/28 04:59:50;;;;;;;0.80;0.80;;;3.10;99.90;;;;;;5130647;28;20184;-83
2023/12/28 05:02:15;;;;;;;0.80;0.80;;;3.10;1.00;;;;;;5124031;28;20173;-81
2023/12/28 05:04:41;;;;;;;0.80;0.80;;;3.30;99.90;;;;;;5119887;28;20165;-81
2023/12/28 05:07:07;;;;;;;0.80;0.80;;;3.50;1.00;;;;;;5120196;28;20232;-83
2023/12/28 05:09:32;;;;;;;0.80;0.80;;;3.50;1.00;;;;;;5120024;28;20265;-83
2023/12/28 05:11:58;;;;;;;0.80;0.80;;;3.60;1.00;;;;;;5116890;28;20177;-82
2023/12/28 05:14:23;;;;;;;0.77;0.77;;;3.70;99.90;;;;;;5119006;28;20205;-81
2023/12/28 05:16:49;;;;;;;0.73;0.73;;;3.60;99.90;;;;;;5130860;28;20189;-80
2023/12/28 05:19:15;;;;;;;0.80;0.80;;;3.50;1.00;;;;;;5134247;28;20240;-82
2023/12/28 05:21:40;;;;;;;0.80;0.80;;;3.40;38.90;;;;;;5122492;28;20169;-81
2023/12/28 05:24:06;;;;;;;0.80;0.80;;;3.50;1.00;;;;;;5121981;28;20169;-80
2023/12/28 05:26:31;;;;;;;0.67;0.67;;;3.80;19.30;;;;;;5122144;28;20598;-81
2023/12/28 05:28:57;;;;;;;0.73;0.73;;;4.00;99.90;;;;;;5124000;28;20205;-81
2023/12/28 05:31:22;;;;;;;0.73;0.73;;;3.80;1.00;;;;;;5122914;28;20544;-81
2023/12/28 05:33:48;;;;;;;0.87;0.87;;;4.10;1.00;;;;;;5124579;28;20236;-81
2023/12/28 05:36:13;;;;;;;0.70;0.70;;;4.80;1.00;;;;;;5111689;28;20564;-80
2023/12/28 05:38:39;;;;;;;0.67;0.67;;;5.00;99.90;;;;;;5107676;28;20177;-83
2023/12/28 05:41:05;;;;;;;0.80;0.80;;;5.20;99.90;;;;;;5100562;28;20219;-81
2023/12/28 05:43:30;;;;;;;0.80;0.80;;;5.10;99.90;;;;;;5101886;28;20632;-82
2023/12/28 05:45:56;;;;;;;0.87;0.87;;;5.10;99.90;;;;;;5100953;28;20269;-82
2023/12/28 05:48:21;;;;;;;0.80;0.80;;;5.20;1.00;;;;;;5100486;28;20566;-81
2023/12/28 05:50:47;;;;;;;0.80;0.80;;;5.40;99.90;;;;;;5100730;28;20220;-82
2023/12/28 05:53:14;;;;;;;0.77;0.77;;;5.50;99.90;;;;;;5100920;28;20209;-81
2023/12/28 05:55:43;;;;;;;0.80;0.80;;;5.80;99.90;;;;;;5100258;28;20169;-82
2023/12/28 05:58:12;;;;;;;0.80;0.80;;;5.60;1.00;;;;;;5099031;28;20174;-81
2023/12/28 06:00:38;;;;;;;0.70;0.70;;;5.60;99.90;;;;;;5099822;28;20204;-83
2023/12/28 06:03:04;;;;;;;0.80;0.80;;;5.50;99.90;;;;;;5099884;28;20226;-81
2023/12/28 06:05:30;;;;;;;0.80;0.80;;;5.60;99.90;;;;;;5099243;28;20194;-81
2023/12/28 06:07:57;;;;;;;0.80;0.80;;;5.80;99.90;;;;;;5098601;28;20189;-82
2023/12/28 06:10:24;;;;;;;0.70;0.70;;;5.90;81.10;;;;;;5117286;28;20205;-80
2023/12/28 06:12:49;;;;;;;0.70;0.70;;;5.50;1.00;;;;;;5120245;28;20250;-79
2023/12/28 06:15:15;;;;;;;0.70;0.70;;;5.10;99.90;;;;;;5119963;28;20180;-80
2023/12/28 06:17:41;;;;;;;0.70;0.70;;;5.10;1.00;;;;;;5112303;28;20198;-83
2023/12/28 06:20:08;;;;;;;0.87;0.87;;;5.30;99.90;;;;;;5098686;28;20224;-82
2023/12/28 06:22:36;;;;;;;0.70;0.70;;;5.30;1.00;;;;;;5098282;28;20252;-83
2023/12/28 06:25:02;;;;;;;0.70;0.70;;;5.30;1.00;;;;;;5098284;28;20230;-83
2023/12/28 06:27:27;;;;;;;0.80;0.80;;;5.30;99.90;;;;;;5097773;28;20376;-83
2023/12/28 06:29:53;;;;;;;0.73;0.73;;;5.60;99.90;;;;;;5097897;28;20202;-83
2023/12/28 06:32:18;;;;;;;0.70;0.70;;;5.70;99.90;;;;;;5098053;28;20659;-83
2023/12/28 06:34:44;;;;;;;0.80;0.80;;;5.70;99.90;;;;;;5098032;28;20218;-83
2023/12/28 06:37:09;;;;;;;0.70;0.70;;;5.70;99.90;;;;;;5109295;28;20193;-83
2023/12/28 06:39:35;;;;;;;0.70;0.70;;;5.50;99.90;;;;;;5106205;28;20186;-83
2023/12/28 06:42:00;;;;;;;0.80;0.80;;;5.50;99.90;;;;;;5115306;27;20173;-82
2023/12/28 06:44:26;;;;;;;0.70;0.70;;;5.70;1.00;;;;;;5118219;27;20173;-81
2023/12/28 06:46:51;;;;;;;0.70;0.70;;;5.90;1.00;;;;;;5127532;27;20213;-83
2023/12/28 06:49:17;;;;;;;0.70;0.70;;;6.10;99.90;;;;;;5139250;27;20204;-83
2023/12/28 06:51:45;;;;;;;0.70;0.70;;;6.30;99.90;;;;;;5137050;27;20195;-83
2023/12/28 06:54:11;;;;;;;0.70;0.70;;;6.50;99.90;;;;;;5119268;27;20181;-83
2023/12/28 06:56:36;;;;;;;0.80;0.80;;;6.70;20.00;;;;;;5117246;28;20189;-83
2023/12/28 06:59:02;;;;;;;0.70;0.70;;;6.90;99.90;;;;;;5117914;28;20278;-83
2023/12/28 07:01:27;;;;;;;0.80;0.80;;;6.70;97.90;;;;;;5117186;28;20205;-83
2023/12/28 07:03:53;;;;;;;0.70;0.70;;;6.70;98.70;;;;;;5117136;28;20173;-83
2023/12/28 07:06:18;;;;;;;0.70;0.70;;;6.90;68.30;;;;;;5117119;28;20196;-83
2023/12/28 07:08:44;;;;;;;0.70;0.70;;;6.90;99.90;;;;;;5118433;28;20172;-83
2023/12/28 07:11:11;;;;;;;0.80;0.80;;;6.90;99.90;;;;;;5117599;28;20196;-83
2023/12/28 07:13:37;;;;;;;0.70;0.70;;;6.90;99.90;;;;;;5117379;28;20719;-83
2023/12/28 07:16:02;;;;;;;0.80;0.80;;;6.80;1.00;;;;;;5115365;28;20193;-84
2023/12/28 07:18:28;;;;;;;0.83;0.83;;;6.90;99.90;;;;;;5117630;28;20169;-83
2023/12/28 07:20:54;;;;;;;0.70;0.70;;;7.20;99.90;;;;;;5117343;28;20226;-83
2023/12/28 07:23:19;;;;;;;0.80;0.80;;;7.20;99.90;;;;;;5116951;28;20207;-84
2023/12/28 07:25:45;;;;;;;0.73;0.73;;;7.30;99.90;;;;;;5117576;28;20197;-84
2023/12/28 07:28:11;;;;;;;0.70;0.70;;;7.30;66.50;;;;;;5117655;28;20169;-84
2023/12/28 07:30:37;;;;;;;0.70;0.70;;;7.40;72.00;;;;;;5117522;28;20613;-82
2023/12/28 07:33:03;;;;;;;0.80;0.80;;;7.30;1.00;;;;;;5117433;28;20173;-82
2023/12/28 07:35:28;;;;;;;0.77;0.77;;;7.20;1.00;;;;;;5117048;28;20177;-83
2023/12/28 07:37:54;;;;;;;0.70;0.70;;;7.20;1.00;;;;;;5122594;27;20161;-84
2023/12/28 07:40:20;;;;;;;0.80;0.80;;;7.20;1.00;;;;;;5138069;27;20168;-83
2023/12/28 07:42:45;;;;;;;0.80;0.80;;;7.30;1.00;;;;;;5137728;27;20168;-83
2023/12/28 07:45:11;;;;;;;0.60;0.60;;;7.20;1.00;;;;;;5128759;27;20177;-82
2023/12/28 07:47:37;;;;;;;0.70;0.70;;;7.20;1.00;;;;;;5118488;28;20227;-85
2023/12/28 07:50:03;;;;;;;0.70;0.70;;;7.00;1.00;;;;;;5118034;28;20682;-84
2023/12/28 07:52:29;;;;;;;0.70;0.70;;;7.00;99.90;;;;;;5117648;28;20177;-82
2023/12/28 07:54:55;;;;;;;0.70;0.70;;;7.00;1.00;;;;;;5116677;28;20172;-84
2023/12/28 07:57:21;;;;;;;0.70;0.70;;;6.90;99.90;;;;;;5116531;28;20272;-84
2023/12/28 07:59:46;;;;;;;0.80;0.80;;;6.80;1.00;;;;;;5106866;28;20177;-84
2023/12/28 08:02:12;;;;;;;0.60;0.60;;;6.90;99.90;;;;;;5096265;28;20244;-83
2023/12/28 08:04:37;;;;;;;0.80;0.80;;;7.00;1.00;;;;;;5096036;28;20169;-83
2023/12/28 08:07:04;;;;;;;0.70;0.70;;;6.90;99.90;;;;;;5096533;28;20237;-84
2023/12/28 08:09:30;;;;;;;0.63;0.63;;;7.00;1.00;;;;;;5096503;28;20248;-83
2023/12/28 08:11:56;;;;;;;0.80;0.80;;;7.10;61.10;;;;;;5096583;28;20174;-83
2023/12/28 08:14:22;;;;;;;0.70;0.70;;;7.00;1.00;;;;;;5096502;28;20180;-83
2023/12/28 08:16:47;;;;;;;0.70;0.70;;;7.20;1.00;;;;;;5101195;28;20177;-80
2023/12/28 08:19:13;;;;;;;0.80;0.80;;;6.90;99.90;;;;;;5124352;28;20264;-80
2023/12/28 08:21:39;;;;;;;0.80;0.80;;;6.60;1.00;;;;;;5112872;28;20181;-83
2023/12/28 08:24:07;;;;;;;0.80;0.80;;;6.70;1.00;;;;;;5106763;28;20193;-80
2023/12/28 08:26:32;;;;;;;0.70;0.70;;;6.70;1.00;;;;;;5106371;28;20193;-83
2023/12/28 08:28:59;;;;;;;0.70;0.70;;;6.80;1.00;;;;;;5118165;28;20201;-84
2023/12/28 08:31:24;;;;;;;0.70;0.70;;;6.70;1.00;;;;;;5118184;28;20169;-84
2023/12/28 08:33:50;;;;;;;0.70;0.70;;;6.80;1.00;;;;;;5117434;28;20525;-82
2023/12/28 08:36:17;;;;;;;0.67;0.67;;;6.80;1.00;;;;;;5115525;28;20622;-82
2023/12/28 08:38:43;;;;;;;0.70;0.70;;;6.80;1.00;;;;;;5116056;28;20184;-84
2023/12/28 08:41:18;;;;;;;0.77;0.77;;;6.80;1.00;;;;;;5117697;27;20185;-83
2023/12/28 08:43:44;;;;;;;0.60;0.60;;;6.70;1.00;;;;;;5115627;28;20175;-83
2023/12/28 08:46:09;;;;;;;0.70;0.70;;;6.70;1.00;;;;;;5107162;27;20284;-82
2023/12/28 08:48:35;;;;;;;0.70;0.70;;;6.70;1.00;;;;;;5109853;28;20267;-83
2023/12/28 08:51:01;;;;;;;0.60;0.60;;;6.80;1.00;;;;;;5107681;28;20202;-82
2023/12/28 08:53:26;;;;;;;0.70;0.70;;;6.80;1.00;;;;;;5097553;28;20670;-82
2023/12/28 08:55:52;;;;;;;0.90;0.90;;;6.90;1.00;;;;;;5118078;28;20590;-82
2023/12/28 08:58:18;;;;;;;0.70;0.70;;;6.90;1.00;;;;;;5122334;28;20188;-83
2023/12/28 09:00:45;;;;;;;0.70;0.70;;;6.90;1.00;;;;;;5138241;27;20560;-84
2023/12/28 09:03:11;;;;;;;0.70;0.70;;;6.90;1.00;;;;;;5142024;27;20255;-83
2023/12/28 09:05:36;;;;;;;0.80;0.80;;;7.10;1.00;;;;;;5141864;27;20192;-82
2023/12/28 09:08:02;;;;;;;0.77;0.77;;;7.10;1.00;;;;;;5140325;27;20191;-83
2023/12/28 09:10:27;;;;;;;0.70;0.70;;;7.20;1.00;;;;;;5140931;27;20205;-85
2023/12/28 09:12:53;;;;;;;0.60;0.60;;;7.30;1.00;;;;;;5137553;27;20223;-82
2023/12/28 09:15:18;;;;;;;0.70;0.70;;;7.20;1.00;;;;;;5117080;28;20182;-83
2023/12/28 09:17:44;;;;;;;0.70;0.70;;;7.20;1.00;;;;;;5120701;28;20297;-82
2023/12/28 09:20:11;;;;;;;0.80;0.80;;;7.20;1.00;;;;;;5117757;28;20169;-81
2023/12/28 09:22:37;;;;;;;0.70;0.70;;;7.30;1.00;;;;;;5108184;28;20177;-82
2023/12/28 09:25:03;;;;;;;0.70;0.70;;;7.30;1.00;;;;;;5098859;28;20180;-81
2023/12/28 09:27:29;;;;;;;0.70;0.70;;;7.30;1.00;;;;;;5099759;28;20687;-82
2023/12/28 09:29:54;;;;;;;0.73;0.73;;;7.20;1.00;;;;;;5099491;28;20248;-81
2023/12/28 09:32:20;;;;;;;0.63;0.63;;;7.20;1.00;;;;;;5101394;28;20700;-80
2023/12/28 09:34:45;;;;;;;0.70;0.70;;;7.20;1.00;;;;;;5120503;28;20170;-78
2023/12/28 09:37:11;;;;;;;0.80;0.80;;;7.30;1.00;;;;;;5130386;28;20188;-78
2023/12/28 09:39:37;;;;;;;0.77;0.77;;;7.40;1.00;;;;;;5133051;28;20188;-82
2023/12/28 09:42:14;;;;;;;0.63;0.63;;;7.30;1.00;;;;;;5110879;28;20624;-81
2023/12/28 09:44:43;;;;;;;0.70;0.70;;;7.30;1.00;;;;;;5112035;28;20642;-83
2023/12/28 09:47:12;;;;;;;0.77;0.77;;;7.10;1.00;;;;;;5117187;28;20301;-81
2023/12/28 09:49:38;;;;;;;0.77;0.77;;;7.10;1.00;;;;;;5110374;28;20209;-81
2023/12/28 09:52:05;;;;;;;0.70;0.70;;;7.10;1.00;;;;;;5123283;28;20181;-81
2023/12/28 09:54:31;;;;;;;0.70;0.70;;;7.20;1.00;;;;;;5119271;28;20174;-80
2023/12/28 09:56:57;;;;;;;0.70;0.70;;;7.30;1.00;;;;;;5118083;28;20193;-82
2023/12/28 09:59:24;;;;;;;0.80;0.80;;;7.40;1.00;;;;;;5122709;28;20214;-81
2023/12/28 10:01:49;;;;;;;0.60;0.60;;;7.50;99.90;;;;;;5124522;28;20174;-82
2023/12/28 10:04:16;;;;;;;0.60;0.60;;;7.60;99.90;;;;;;5103744;28;20662;-82
2023/12/28 10:06:42;;;;;;;0.60;0.60;;;7.70;99.90;;;;;;5102482;28;20225;-83
2023/12/28 10:09:07;;;;;;;0.70;0.70;;;7.80;99.90;;;;;;5107458;28;20250;-82
2023/12/28 10:11:33;;;;;;;0.70;0.70;;;7.90;99.90;;;;;;5117968;28;20179;-82
2023/12/28 10:13:59;;;;;;;0.70;0.70;;;8.00;99.90;;;;;;5118102;28;20188;-82
2023/12/28 10:16:24;;;;;;;0.70;0.70;;;8.00;99.90;;;;;;5108654;28;20190;-83
2023/12/28 10:18:50;;;;;;;0.70;0.70;;;8.00;99.90;;;;;;5105967;28;20209;-82
2023/12/28 10:21:16;;;;;;;0.70;0.70;;;8.00;99.90;;;;;;5106035;28;20181;-83
2023/12/28 10:23:41;;;;;;;0.70;0.70;;;8.10;99.90;;;;;;5109606;27;21009;-81
2023/12/28 10:26:08;;;;;;;0.70;0.70;;;8.20;99.90;;;;;;5111390;28;20688;-84
2023/12/28 10:28:34;;;;;;;0.80;0.80;;;8.40;99.90;;;;;;5103602;28;20174;-80
2023/12/28 10:31:01;;;;;;;0.60;0.60;;;8.60;99.90;;;;;;5104736;28;20293;-83
2023/12/28 10:33:33;;;;;;;0.60;0.60;;;8.60;1.00;;;;;;5112306;28;20173;-79
2023/12/28 10:35:59;;;;;;;0.60;0.60;;;8.80;1.00;;;;;;5118173;28;20209;-80
2023/12/28 10:38:27;;;;;;;0.70;0.70;;;9.10;1.00;;;;;;5118026;28;20161;-80
2023/12/28 10:40:53;;;;;;;0.60;0.60;;;9.00;1.00;;;;;;5117713;28;20166;-80
2023/12/28 10:43:22;;;;;;;0.60;0.60;;;9.00;1.00;;;;;;5117293;28;20178;-80
2023/12/28 10:45:50;;;;;;;0.60;0.60;;;9.20;99.90;;;;;;5116801;28;20226;-80
2023/12/28 10:48:26;;;;;;;0.60;0.60;;;9.50;1.00;;;;;;5111010;28;20200;-83
2023/12/28 10:50:52;;;;;;;0.63;0.63;;;9.50;1.00;;;;;;5099569;28;20680;-81
2023/12/28 10:53:42;;;;;;;0.50;0.50;;;9.70;1.00;;;;;;5099302;28;20186;-82
2023/12/28 10:56:19;;;;;;;0.60;0.60;;;9.80;1.00;;;;;;5105110;28;20197;-83
2023/12/28 10:59:09;;;;;;;0.60;0.60;;;9.90;1.00;;;;;;5098772;28;20169;-83
2023/12/28 11:01:39;;;;;;;0.60;0.60;;;10.00;1.00;;;;;;5104902;28;20181;-83
2023/12/28 11:04:09;;;;;;;0.50;0.50;;;10.10;1.00;;;;;;5122030;28;20164;-79
2023/12/28 11:06:37;;;;;;;0.70;0.70;;;10.20;1.00;;;;;;5117836;28;20206;-83
2023/12/28 11:09:05;;;;;;;0.50;0.50;;;10.30;1.00;;;;;;5107547;28;20209;-82
2023/12/28 11:11:32;;;;;;;0.60;0.60;;;10.30;1.00;;;;;;5111365;28;20178;-81
2023/12/28 11:14:00;;;;;;;0.70;0.70;;;10.40;1.00;;;;;;5117693;28;20595;-83
2023/12/28 11:16:27;;;;;;;0.50;0.50;;;10.40;1.00;;;;;;5112901;28;20209;-84
2023/12/28 11:18:54;;;;;;;0.60;0.60;;;10.40;1.00;;;;;;5106083;28;20173;-82
2023/12/28 11:21:21;;;;;;;0.60;0.60;;;10.40;1.00;;;;;;5099074;28;20178;-82
2023/12/28 11:23:48;;;;;;;0.60;0.60;;;10.40;99.90;;;;;;5100750;28;20694;-83
2023/12/28 11:26:21;;;;;;;0.60;0.60;;;10.40;1.00;;;;;;5102880;28;20197;-84
2023/12/28 11:28:46;;;;;;;0.50;0.50;;;10.40;99.90;;;;;;5104061;28;20203;-81
2023/12/28 11:31:17;;;;;;;0.60;0.60;;;10.50;1.00;;;;;;5102449;28;20241;-83
2023/12/28 11:33:47;;;;;;;0.57;0.57;;;10.60;99.90;;;;;;5097645;28;20342;-83
2023/12/28 11:36:32;;;;;;;0.50;0.50;;;10.70;99.90;;;;;;5107154;28;20815;-83
2023/12/28 11:39:02;;;;;;;0.50;0.50;;;10.70;40.60;;;;;;5113724;28;20181;-84
2023/12/28 11:41:27;;;;;;;0.70;0.70;;;10.70;1.00;;;;;;5113496;28;20177;-86
2023/12/28 11:43:54;;;;;;;0.50;0.50;;;10.70;90.70;;;;;;5098119;28;20201;-84
2023/12/28 11:46:21;;;;;;;0.50;0.50;;;10.60;99.90;;;;;;5111517;28;20216;-83
2023/12/28 11:48:47;;;;;;;0.60;0.60;;;10.60;99.90;;;;;;5097897;28;20204;-83
2023/12/28 11:51:12;;;;;;;0.60;0.60;;;10.60;99.90;;;;;;5107945;28;20657;-84
2023/12/28 11:53:39;;;;;;;0.50;0.50;;;10.60;99.90;;;;;;5105957;28;20185;-84
2023/12/28 11:56:09;;;;;;;0.50;0.50;;;10.60;99.90;;;;;;5106047;28;20197;-82
2023/12/28 11:58:35;;;;;;;0.40;0.40;;;10.60;1.00;;;;;;5109644;28;20212;-82
2023/12/28 12:01:02;;;;;;;0.50;0.50;;;10.70;99.90;;;;;;5102362;28;20173;-85
2023/12/28 12:03:29;;;;;;;0.50;0.50;;;10.60;1.00;;;;;;5112294;28;20180;-83
2023/12/28 12:05:57;;;;;;;0.50;0.50;;;10.60;1.00;;;;;;5106209;28;20630;-84
2023/12/28 12:08:23;;;;;;;0.50;0.50;;;10.60;1.00;;;;;;5103960;28;20193;-82
2023/12/28 12:10:59;;;;;;;0.50;0.50;;;10.60;1.00;;;;;;5098929;28;20398;-82
2023/12/28 12:13:25;;;;;;;0.60;0.60;;;10.50;26.20;;;;;;5098673;28;20166;-82
2023/12/28 12:15:51;;;;;;;0.50;0.50;;;10.40;1.00;;;;;;5097564;28;20205;-82
2023/12/28 12:18:17;;;;;;;0.60;0.60;;;10.30;1.00;;;;;;5096484;28;20185;-81
2023/12/28 12:20:42;;;;;;;0.60;0.60;;;10.20;1.00;;;;;;5106767;28;20166;-79
2023/12/28 12:23:08;;;;;;;0.50;0.50;;;10.30;1.00;;;;;;5119194;28;20181;-83
2023/12/28 12:25:34;;;;;;;0.60;0.60;;;10.20;99.90;;;;;;5106045;28;20173;-81
2023/12/28 12:27:59;;;;;;;0.50;0.50;;;10.20;1.00;;;;;;5102676;28;20237;-82
2023/12/28 12:30:25;;;;;;;0.67;0.67;;;10.20;1.00;;;;;;5102413;28;20205;-83
2023/12/28 12:32:50;;;;;;;0.60;0.60;;;10.10;1.00;;;;;;5103132;28;20200;-83
2023/12/28 12:35:17;;;;;;;0.50;0.50;;;10.20;1.00;;;;;;5100859;28;20182;-81
2023/12/28 12:37:44;;;;;;;0.63;0.63;;;10.20;1.00;;;;;;5101398;28;20209;-83
2023/12/28 12:40:10;;;;;;;0.50;0.50;;;10.20;1.00;;;;;;5101769;28;20193;-81
2023/12/28 12:42:35;;;;;;;0.60;0.60;;;10.20;1.00;;;;;;5101881;28;20177;-82
2023/12/28 12:45:01;;;;;;;0.70;0.70;;;10.20;1.00;;;;;;5108975;28;20168;-83
2023/12/28 12:47:32;;;;;;;0.60;0.60;;;10.20;1.00;;;;;;5118085;28;20193;-82
2023/12/28 12:49:58;;;;;;;0.60;0.60;;;10.10;1.00;;;;;;5114635;28;20210;-83
2023/12/28 12:52:25;;;;;;;0.60;0.60;;;10.00;99.90;;;;;;5108546;28;20199;-83
2023/12/28 12:54:56;;;;;;;0.60;0.60;;;10.00;1.00;;;;;;5120238;28;20255;-82
2023/12/28 12:57:21;;;;;;;0.50;0.50;;;9.90;99.90;;;;;;5100975;28;20254;-83